createdAt,value
2019-04-01T00:02:20.326Z,1.00
2019-04-01T00:05:08.135Z,1.40
2019-04-01T00:46:17.467Z,0.97
2019-04-01T01:01:39.942Z,1.30
2019-04-01T01:04:27.253Z,1.73
2019-04-01T01:07:21.424Z,1.07
2019-04-01T01:10:08.224Z,1.40
2019-04-01T01:31:47.847Z,1.20
2019-04-01T02:06:45.454Z,1.27
2019-04-01T02:09:32.779Z,1.03
2019-04-01T02:12:19.946Z,1.75
2019-04-01T02:15:21.645Z,1.30
2019-04-01T02:55:44.886Z,1.00
2019-04-01T02:58:31.688Z,1.50
2019-04-01T03:01:18.918Z,1.37
2019-04-01T03:20:14.783Z,1.20
2019-04-01T03:23:09.194Z,1.47
2019-04-01T03:25:56.177Z,1.90
2019-04-01T03:28:50.151Z,1.50
2019-04-01T03:50:20.385Z,1.93
2019-04-01T04:09:03.645Z,1.40
2019-04-01T04:15:05.615Z,1.43
2019-04-01T04:24:13.558Z,2.17
2019-04-01T04:27:00.551Z,1.43
2019-04-01T04:29:47.686Z,1.80
2019-04-01T04:35:43.561Z,1.70
2019-04-01T04:57:30.739Z,2.13
2019-04-01T05:00:17.455Z,1.60
2019-04-01T05:03:04.755Z,1.93
2019-04-01T05:05:51.560Z,1.87
2019-04-01T05:08:38.565Z,1.73
2019-04-01T05:20:43.634Z,2.73
2019-04-01T05:29:46.638Z,2.47
2019-04-01T05:48:07.534Z,1.70
2019-04-01T05:50:54.800Z,1.30
2019-04-01T05:53:41.531Z,2.00
2019-04-01T06:05:48.390Z,1.83
2019-04-01T06:08:35.317Z,1.50
2019-04-01T06:11:22.441Z,2.60
2019-04-01T06:14:09.411Z,2.03
2019-04-01T06:16:56.091Z,1.60
2019-04-01T06:29:16.330Z,1.90
2019-04-01T06:32:03.092Z,2.30
2019-04-01T06:34:53.029Z,2.50
2019-04-01T06:37:38.875Z,1.70
2019-04-01T06:40:26.862Z,1.90
2019-04-01T06:43:14.180Z,1.80
2019-04-01T06:46:01.358Z,1.47
2019-04-01T07:07:37.645Z,1.70
2019-04-01T07:29:01.427Z,1.80
2019-04-01T07:31:48.582Z,2.20
2019-04-01T07:34:36.685Z,1.60
2019-04-01T07:40:31.824Z,2.13
2019-04-01T07:43:33.703Z,2.10
2019-04-01T07:49:26.622Z,1.60
2019-04-01T07:55:20.954Z,1.87
2019-04-01T07:58:08.542Z,1.87
2019-04-01T08:00:56.204Z,1.90
2019-04-01T08:03:43.367Z,2.00
2019-04-01T08:06:31.356Z,2.03
2019-04-01T08:15:33.421Z,2.25
2019-04-01T08:18:20.352Z,1.75
2019-04-01T08:21:07.779Z,1.87
2019-04-01T08:23:54.787Z,1.95
2019-04-01T08:26:41.918Z,1.87
2019-04-01T08:29:30.821Z,2.10
2019-04-01T08:32:16.979Z,1.98
2019-04-01T08:35:03.782Z,1.90
2019-04-01T08:37:52.191Z,1.60
2019-04-01T08:40:40.044Z,1.75
2019-04-01T08:43:27.860Z,1.77
2019-04-01T08:46:15.078Z,1.80
2019-04-01T08:49:02.012Z,2.15
2019-04-01T08:51:49.311Z,1.67
2019-04-01T08:54:36.672Z,1.80
2019-04-01T08:57:31.729Z,2.45
2019-04-01T09:00:18.847Z,2.30
2019-04-01T09:03:05.865Z,2.40
2019-04-01T09:05:52.886Z,2.10
2019-04-01T09:08:39.814Z,2.40
2019-04-01T09:11:26.914Z,2.60
2019-04-01T09:14:14.526Z,2.28
2019-04-01T09:17:01.644Z,1.95
2019-04-01T09:19:48.794Z,2.17
2019-04-01T09:22:35.723Z,1.80
2019-04-01T09:25:23.606Z,1.85
2019-04-01T09:28:11.254Z,1.83
2019-04-01T09:30:58.071Z,2.33
2019-04-01T09:33:45.213Z,1.83
2019-04-01T09:36:32.617Z,1.55
2019-04-01T09:42:26.673Z,2.12
2019-04-01T09:45:13.694Z,1.60
2019-04-01T09:48:02.145Z,2.15
2019-04-01T09:50:49.176Z,1.77
2019-04-01T09:56:43.042Z,2.12
2019-04-01T09:59:30.872Z,1.45
2019-04-01T10:02:31.126Z,2.08
2019-04-01T10:05:04.807Z,1.85
2019-04-01T10:07:53.049Z,1.90
2019-04-01T10:10:40.100Z,1.87
2019-04-01T10:13:27.295Z,1.83
2019-04-01T10:16:14.423Z,1.85
2019-04-01T10:19:01.637Z,1.67
2019-04-01T10:21:49.063Z,1.87
2019-04-01T10:24:36.282Z,1.58
2019-04-01T10:27:23.398Z,1.73
2019-04-01T10:30:10.827Z,1.60
2019-04-01T10:33:02.002Z,1.90
2019-04-01T10:38:51.135Z,1.50
2019-04-01T10:41:38.334Z,1.50
2019-04-01T10:44:26.044Z,1.50
2019-04-01T10:47:12.828Z,1.45
2019-04-01T10:49:59.923Z,1.60
2019-04-01T10:52:55.072Z,1.80
2019-04-01T11:08:07.365Z,1.30
2019-04-01T11:10:54.646Z,2.03
2019-04-01T11:13:41.639Z,1.75
2019-04-01T11:16:31.698Z,1.90
2019-04-01T11:19:15.787Z,1.80
2019-04-01T11:22:03.815Z,1.70
2019-04-01T11:24:49.918Z,1.60
2019-04-01T11:30:44.010Z,2.00
2019-04-01T11:36:38.243Z,1.50
2019-04-01T11:39:25.911Z,1.50
2019-04-01T11:42:15.032Z,2.00
2019-04-01T11:45:05.625Z,1.95
2019-04-01T11:47:49.788Z,1.77
2019-04-01T11:50:47.606Z,1.37
2019-04-01T11:53:31.466Z,1.17
2019-04-01T11:56:18.868Z,2.08
2019-04-01T11:59:06.096Z,1.58
2019-04-01T12:01:52.817Z,1.50
2019-04-01T12:04:39.564Z,1.52
2019-04-01T12:07:27.126Z,1.20
2019-04-01T12:10:14.356Z,1.70
2019-04-01T12:13:01.496Z,1.30
2019-04-01T12:15:51.472Z,1.30
2019-04-01T12:18:38.565Z,1.60
2019-04-01T12:21:25.386Z,1.40
2019-04-01T12:24:12.382Z,1.60
2019-04-01T12:26:59.600Z,1.27
2019-04-01T12:32:52.257Z,1.30
2019-04-01T12:35:39.403Z,1.27
2019-04-01T12:38:26.805Z,1.80
2019-04-01T12:41:13.826Z,1.23
2019-04-01T12:44:00.632Z,1.55
2019-04-01T12:46:47.546Z,0.90
2019-04-01T12:49:34.774Z,1.15
2019-04-01T12:52:22.248Z,1.17
2019-04-01T12:55:09.222Z,1.40
2019-04-01T12:57:56.300Z,0.93
2019-04-01T13:00:43.096Z,1.27
2019-04-01T13:03:30.297Z,0.80
2019-04-01T13:06:17.045Z,0.95
2019-04-01T13:09:04.191Z,1.10
2019-04-01T13:11:51.400Z,1.33
2019-04-01T13:14:40.064Z,1.52
2019-04-01T13:20:37.951Z,1.55
2019-04-01T13:23:18.266Z,1.33
2019-04-01T13:26:05.106Z,1.20
2019-04-01T13:28:52.400Z,1.87
2019-04-01T13:31:40.520Z,1.20
2019-04-01T13:34:28.151Z,1.37
2019-04-01T13:37:15.299Z,1.20
2019-04-01T13:40:03.306Z,0.90
2019-04-01T13:42:51.260Z,1.02
2019-04-01T13:45:38.100Z,1.30
2019-04-01T13:48:25.269Z,1.10
2019-04-01T13:51:12.301Z,1.10
2019-04-01T13:54:08.403Z,1.48
2019-04-01T13:59:53.309Z,1.00
2019-04-01T14:02:40.441Z,0.90
2019-04-01T14:05:27.745Z,1.00
2019-04-01T14:08:14.749Z,1.12
2019-04-01T14:11:05.714Z,1.25
2019-04-01T14:13:48.984Z,2.08
2019-04-01T14:16:36.045Z,1.30
2019-04-01T14:19:22.780Z,1.50
2019-04-01T14:25:16.934Z,0.68
2019-04-01T14:28:03.618Z,1.02
2019-04-01T14:30:50.539Z,1.40
2019-04-01T14:33:37.404Z,1.25
2019-04-01T14:45:42.429Z,1.05
2019-04-01T14:48:43.775Z,1.15
2019-04-01T14:54:36.364Z,1.00
2019-04-01T14:57:23.527Z,1.33
2019-04-01T15:00:28.869Z,1.60
2019-04-01T15:06:22.102Z,1.00
2019-04-01T15:18:27.888Z,1.00
2019-04-01T15:24:22.173Z,1.17
2019-04-01T15:30:15.463Z,1.15
2019-04-01T15:36:09.734Z,1.25
2019-04-01T15:38:57.279Z,1.00
2019-04-01T15:41:45.259Z,1.02
2019-04-01T15:44:30.779Z,1.50
2019-04-01T15:47:17.516Z,1.50
2019-04-01T15:50:04.399Z,1.23
2019-04-01T15:59:04.382Z,0.80
2019-04-01T16:01:59.103Z,1.48
2019-04-01T16:04:45.733Z,1.10
2019-04-01T16:07:32.821Z,1.08
2019-04-01T16:10:20.991Z,1.17
2019-04-01T16:13:09.773Z,1.77
2019-04-01T16:37:45.236Z,2.15
2019-04-01T16:40:32.532Z,1.52
2019-04-01T16:43:19.601Z,1.50
2019-04-01T16:46:06.913Z,1.35
2019-04-01T16:52:00.371Z,1.85
2019-04-01T16:54:55.700Z,1.92
2019-04-01T16:57:42.808Z,1.95
2019-04-01T17:00:29.938Z,1.73
2019-04-01T17:03:16.761Z,1.45
2019-04-01T17:09:10.004Z,3.67
2019-04-01T17:11:59.445Z,2.08
2019-04-01T17:27:24.946Z,1.48
2019-04-01T17:30:12.092Z,1.20
2019-04-01T17:32:58.940Z,1.60
2019-04-01T17:35:45.749Z,2.10
2019-04-01T17:38:32.540Z,1.52
2019-04-01T17:41:19.881Z,1.77
2019-04-01T17:47:13.855Z,2.03
2019-04-01T17:56:14.216Z,2.30
2019-04-01T17:59:01.633Z,1.33
2019-04-01T18:01:47.633Z,1.43
2019-04-01T18:07:48.501Z,1.60
2019-04-01T18:10:35.399Z,1.30
2019-04-01T18:13:22.713Z,1.90
2019-04-01T18:16:10.085Z,1.80
2019-04-01T18:18:56.875Z,1.93
2019-04-01T18:21:43.556Z,1.50
2019-04-01T18:24:30.849Z,1.67
2019-04-01T18:27:18.394Z,1.73
2019-04-01T18:30:06.430Z,1.40
2019-04-01T18:32:55.369Z,1.47
2019-04-01T18:35:40.934Z,1.70
2019-04-01T18:38:27.771Z,1.37
2019-04-01T18:41:14.965Z,1.77
2019-04-01T18:44:03.131Z,2.00
2019-04-01T18:46:50.265Z,1.37
2019-04-01T18:49:37.484Z,1.70
2019-04-01T18:52:24.331Z,1.40
2019-04-01T18:55:12.361Z,1.80
2019-04-01T18:58:06.533Z,1.60
2019-04-01T19:00:54.128Z,1.43
2019-04-01T19:03:44.445Z,1.70
2019-04-01T19:06:31.965Z,1.43
2019-04-01T19:09:19.591Z,1.67
2019-04-01T19:12:07.463Z,1.67
2019-04-01T19:18:00.599Z,1.93
2019-04-01T19:20:56.195Z,1.70
2019-04-01T19:29:49.487Z,1.47
2019-04-01T19:32:38.158Z,2.37
2019-04-01T19:35:25.701Z,1.47
2019-04-01T19:44:33.508Z,1.73
2019-04-01T19:47:21.910Z,1.30
2019-04-01T19:50:09.099Z,1.40
2019-04-01T19:52:56.218Z,1.90
2019-04-01T20:01:56.324Z,1.30
2019-04-01T20:04:43.174Z,1.87
2019-04-01T20:10:37.174Z,1.57
2019-04-01T20:13:24.032Z,1.50
2019-04-01T20:22:29.711Z,1.50
2019-04-01T20:25:17.402Z,1.90
2019-04-01T20:28:03.766Z,2.13
2019-04-01T21:13:52.300Z,2.13
2019-04-01T21:19:46.014Z,2.10
2019-04-01T21:22:34.282Z,1.87
2019-04-01T21:25:21.931Z,1.97
2019-04-01T21:34:22.667Z,2.10
2019-04-01T21:37:09.901Z,2.10
2019-04-01T21:43:04.498Z,2.20
2019-04-01T21:45:53.743Z,2.17
2019-04-01T21:48:41.907Z,2.17
2019-04-01T21:51:29.205Z,2.57
2019-04-01T21:54:16.137Z,2.00
2019-04-01T21:57:03.310Z,2.63
2019-04-01T21:59:52.094Z,2.13
2019-04-01T22:02:39.188Z,2.23
2019-04-01T22:05:26.623Z,2.47
2019-04-01T22:08:13.378Z,2.10
2019-04-01T22:11:01.029Z,2.40
2019-04-01T22:16:54.758Z,2.67
2019-04-01T22:19:42.185Z,3.33
2019-04-01T22:22:28.912Z,2.63
2019-04-01T22:25:16.721Z,3.30
2019-04-01T22:28:04.018Z,3.00
2019-04-01T22:30:51.467Z,2.63
2019-04-01T22:33:40.197Z,2.93
2019-04-01T22:36:31.233Z,3.20
2019-04-01T22:39:21.923Z,2.77
2019-04-01T22:42:01.700Z,2.95
2019-04-01T22:44:48.728Z,3.67
2019-04-01T22:47:35.538Z,3.30
2019-04-01T22:50:22.332Z,2.70
2019-04-01T22:56:16.604Z,2.50
2019-04-01T22:59:03.313Z,3.07
2019-04-01T23:01:50.964Z,2.97
2019-04-01T23:10:52.103Z,3.10
2019-04-01T23:13:53.781Z,3.03
2019-04-01T23:16:41.904Z,3.10
2019-04-01T23:19:29.311Z,3.10
2019-04-01T23:22:16.018Z,3.33
2019-04-01T23:25:03.062Z,3.60
2019-04-01T23:27:49.764Z,2.93
2019-04-01T23:30:37.392Z,3.10
2019-04-01T23:33:24.201Z,4.03
2019-04-01T23:36:12.177Z,3.30
2019-04-01T23:38:58.416Z,3.73
2019-04-01T23:41:45.563Z,3.23
2019-04-01T23:47:39.829Z,2.87
2019-04-01T23:50:27.378Z,4.07
2019-04-01T23:53:14.987Z,3.80
2019-04-01T23:56:02.426Z,3.60
